sensor_id;sensor_type;location;lat;lon;timestamp;pressure;altitude;pressure_sealevel;temperature;humidity
48862;BME280;34681;49.188;-0.374;2023-04-09T00:02:17;102111.63;;;11.01;65.39
48862;BME280;34681;49.188;-0.374;2023-04-09T00:04:42;102110.72;;;11.24;64.53
48862;BME280;34681;49.188;-0.374;2023-04-09T00:07:08;102101.75;;;10.98;64.95
48862;BME280;34681;49.188;-0.374;2023-04-09T00:09:33;102108.97;;;10.76;65.75
48862;BME280;34681;49.188;-0.374;2023-04-09T00:11:58;102104.97;;;10.68;65.75
48862;BME280;34681;49.188;-0.374;2023-04-09T00:14:24;102109.91;;;10.63;65.89
48862;BME280;34681;49.188;-0.374;2023-04-09T00:16:49;102103.78;;;10.60;65.62
48862;BME280;34681;49.188;-0.374;2023-04-09T00:19:15;102099.75;;;10.40;66.46
48862;BME280;34681;49.188;-0.374;2023-04-09T00:21:41;102096.16;;;10.39;66.31
48862;BME280;34681;49.188;-0.374;2023-04-09T00:24:06;102094.09;;;10.30;66.58
48862;BME280;34681;49.188;-0.374;2023-04-09T00:26:32;102099.81;;;10.27;66.47
48862;BME280;34681;49.188;-0.374;2023-04-09T00:28:57;102100.44;;;10.44;65.74
48862;BME280;34681;49.188;-0.374;2023-04-09T00:31:22;102089.69;;;10.40;65.86
48862;BME280;34681;49.188;-0.374;2023-04-09T00:33:48;102089.25;;;10.47;65.58
48862;BME280;34681;49.188;-0.374;2023-04-09T00:36:13;102083.16;;;10.30;66.06
48862;BME280;34681;49.188;-0.374;2023-04-09T00:38:38;102082.28;;;10.30;66.28
48862;BME280;34681;49.188;-0.374;2023-04-09T00:41:04;102080.34;;;10.56;65.75
48862;BME280;34681;49.188;-0.374;2023-04-09T00:43:30;102078.66;;;10.66;64.85
48862;BME280;34681;49.188;-0.374;2023-04-09T00:45:55;102081.34;;;10.55;65.20
48862;BME280;34681;49.188;-0.374;2023-04-09T00:48:22;102075.56;;;10.47;65.49
48862;BME280;34681;49.188;-0.374;2023-04-09T00:50:47;102074.84;;;10.32;65.63
48862;BME280;34681;49.188;-0.374;2023-04-09T00:53:13;102071.53;;;10.39;65.66
48862;BME280;34681;49.188;-0.374;2023-04-09T00:55:42;102062.81;;;10.34;65.57
48862;BME280;34681;49.188;-0.374;2023-04-09T00:58:07;102067.00;;;10.02;66.39
48862;BME280;34681;49.188;-0.374;2023-04-09T01:00:32;102061.94;;;10.08;66.27
48862;BME280;34681;49.188;-0.374;2023-04-09T01:02:59;102056.38;;;10.23;65.93
48862;BME280;34681;49.188;-0.374;2023-04-09T01:08:32;102055.50;;;10.83;64.15
48862;BME280;34681;49.188;-0.374;2023-04-09T01:16:23;102051.66;;;10.25;65.19
48862;BME280;34681;49.188;-0.374;2023-04-09T01:18:56;102051.41;;;10.15;65.65
48862;BME280;34681;49.188;-0.374;2023-04-09T01:21:25;102054.75;;;9.95;66.35
48862;BME280;34681;49.188;-0.374;2023-04-09T01:24:13;102055.63;;;9.95;66.37
48862;BME280;34681;49.188;-0.374;2023-04-09T01:26:59;102043.78;;;10.07;66.04
48862;BME280;34681;49.188;-0.374;2023-04-09T01:29:32;102053.97;;;9.93;66.35
48862;BME280;34681;49.188;-0.374;2023-04-09T01:31:59;102053.03;;;10.18;66.02
48862;BME280;34681;49.188;-0.374;2023-04-09T01:34:27;102048.16;;;10.83;64.00
48862;BME280;34681;49.188;-0.374;2023-04-09T01:36:56;102048.22;;;10.71;63.87
48862;BME280;34681;49.188;-0.374;2023-04-09T01:39:22;102045.78;;;10.42;64.71
48862;BME280;34681;49.188;-0.374;2023-04-09T01:41:49;102050.81;;;10.48;64.59
48862;BME280;34681;49.188;-0.374;2023-04-09T01:44:15;102040.63;;;10.26;65.03
48862;BME280;34681;49.188;-0.374;2023-04-09T01:46:41;102039.44;;;10.41;64.78
48862;BME280;34681;49.188;-0.374;2023-04-09T01:49:08;102045.78;;;10.42;64.70
48862;BME280;34681;49.188;-0.374;2023-04-09T01:51:34;102036.84;;;10.40;64.64
48862;BME280;34681;49.188;-0.374;2023-04-09T01:54:00;102032.50;;;10.12;65.59
48862;BME280;34681;49.188;-0.374;2023-04-09T01:56:25;102033.88;;;9.94;66.12
48862;BME280;34681;49.188;-0.374;2023-04-09T01:58:51;102029.03;;;9.97;66.05
48862;BME280;34681;49.188;-0.374;2023-04-09T02:01:40;102028.34;;;10.06;65.56
48862;BME280;34681;49.188;-0.374;2023-04-09T02:07:06;102026.47;;;11.04;63.26
48862;BME280;34681;49.188;-0.374;2023-04-09T02:09:36;102024.16;;;11.22;62.43
48862;BME280;34681;49.188;-0.374;2023-04-09T02:12:05;102026.09;;;11.44;61.60
48862;BME280;34681;49.188;-0.374;2023-04-09T02:14:34;102029.75;;;11.67;60.48
48862;BME280;34681;49.188;-0.374;2023-04-09T02:17:02;102027.25;;;11.75;60.22
48862;BME280;34681;49.188;-0.374;2023-04-09T02:19:38;102019.88;;;11.53;61.06
48862;BME280;34681;49.188;-0.374;2023-04-09T02:22:04;102026.81;;;11.35;61.36
48862;BME280;34681;49.188;-0.374;2023-04-09T02:24:29;102028.59;;;11.01;61.96
48862;BME280;34681;49.188;-0.374;2023-04-09T02:26:55;102025.91;;;11.23;61.85
48862;BME280;34681;49.188;-0.374;2023-04-09T02:29:20;102022.50;;;11.54;60.56
48862;BME280;34681;49.188;-0.374;2023-04-09T02:31:45;102010.19;;;11.14;61.52
48862;BME280;34681;49.188;-0.374;2023-04-09T02:34:10;102014.94;;;11.23;61.17
48862;BME280;34681;49.188;-0.374;2023-04-09T02:36:36;102017.38;;;11.04;61.63
48862;BME280;34681;49.188;-0.374;2023-04-09T02:39:01;102014.72;;;10.67;62.85
48862;BME280;34681;49.188;-0.374;2023-04-09T02:41:28;102013.84;;;10.66;63.01
48862;BME280;34681;49.188;-0.374;2023-04-09T02:43:53;102014.03;;;10.76;63.12
48862;BME280;34681;49.188;-0.374;2023-04-09T02:46:18;102009.44;;;10.77;62.69
48862;BME280;34681;49.188;-0.374;2023-04-09T02:48:44;102008.63;;;10.63;62.95
48862;BME280;34681;49.188;-0.374;2023-04-09T02:51:09;102004.28;;;10.48;63.59
48862;BME280;34681;49.188;-0.374;2023-04-09T02:53:35;102008.03;;;10.47;63.48
48862;BME280;34681;49.188;-0.374;2023-04-09T02:56:02;102001.38;;;10.02;64.98
48862;BME280;34681;49.188;-0.374;2023-04-09T02:58:27;102004.50;;;10.08;65.06
48862;BME280;34681;49.188;-0.374;2023-04-09T03:00:53;102002.53;;;10.10;64.96
48862;BME280;34681;49.188;-0.374;2023-04-09T03:03:18;102001.69;;;9.84;65.59
48862;BME280;34681;49.188;-0.374;2023-04-09T03:05:43;102002.38;;;9.75;66.22
48862;BME280;34681;49.188;-0.374;2023-04-09T03:08:08;101992.88;;;9.68;66.31
48862;BME280;34681;49.188;-0.374;2023-04-09T03:10:34;101993.31;;;10.24;64.91
48862;BME280;34681;49.188;-0.374;2023-04-09T03:12:59;101997.38;;;10.19;64.63
48862;BME280;34681;49.188;-0.374;2023-04-09T03:15:25;101997.72;;;10.51;63.99
48862;BME280;34681;49.188;-0.374;2023-04-09T03:17:50;101984.88;;;10.75;62.66
48862;BME280;34681;49.188;-0.374;2023-04-09T03:20:15;101993.47;;;10.71;63.13
48862;BME280;34681;49.188;-0.374;2023-04-09T03:22:41;101991.22;;;11.00;62.04
48862;BME280;34681;49.188;-0.374;2023-04-09T03:25:06;101987.19;;;11.28;60.88
48862;BME280;34681;49.188;-0.374;2023-04-09T03:27:32;101982.59;;;11.28;60.88
48862;BME280;34681;49.188;-0.374;2023-04-09T03:29:57;101974.50;;;11.38;60.40
48862;BME280;34681;49.188;-0.374;2023-04-09T03:32:23;101978.50;;;11.45;60.06
48862;BME280;34681;49.188;-0.374;2023-04-09T03:34:48;101983.34;;;11.41;60.21
48862;BME280;34681;49.188;-0.374;2023-04-09T03:37:13;101986.94;;;11.42;60.18
48862;BME280;34681;49.188;-0.374;2023-04-09T03:39:39;101983.25;;;11.43;60.05
48862;BME280;34681;49.188;-0.374;2023-04-09T03:42:04;101984.84;;;11.45;59.96
48862;BME280;34681;49.188;-0.374;2023-04-09T03:44:29;101985.00;;;11.44;60.01
48862;BME280;34681;49.188;-0.374;2023-04-09T03:46:55;101988.94;;;11.40;60.27
48862;BME280;34681;49.188;-0.374;2023-04-09T03:49:20;101989.56;;;11.32;60.34
48862;BME280;34681;49.188;-0.374;2023-04-09T03:51:45;101991.56;;;11.41;60.16
48862;BME280;34681;49.188;-0.374;2023-04-09T03:54:11;101990.69;;;11.41;60.40
48862;BME280;34681;49.188;-0.374;2023-04-09T03:56:36;101992.59;;;11.51;60.02
48862;BME280;34681;49.188;-0.374;2023-04-09T03:59:01;101989.22;;;11.48;59.98
48862;BME280;34681;49.188;-0.374;2023-04-09T04:01:27;101982.72;;;11.49;60.00
48862;BME280;34681;49.188;-0.374;2023-04-09T04:03:52;101989.47;;;11.45;60.12
48862;BME280;34681;49.188;-0.374;2023-04-09T04:06:17;101992.69;;;11.50;59.77
48862;BME280;34681;49.188;-0.374;2023-04-09T04:08:43;101989.09;;;11.49;60.11
48862;BME280;34681;49.188;-0.374;2023-04-09T04:11:08;101985.25;;;11.52;60.13
48862;BME280;34681;49.188;-0.374;2023-04-09T04:13:34;101977.75;;;11.54;59.92
48862;BME280;34681;49.188;-0.374;2023-04-09T04:15:59;101981.63;;;11.51;59.86
48862;BME280;34681;49.188;-0.374;2023-04-09T04:18:24;101986.34;;;11.49;59.97
48862;BME280;34681;49.188;-0.374;2023-04-09T04:20:50;101984.13;;;11.54;59.87
48862;BME280;34681;49.188;-0.374;2023-04-09T04:23:15;101984.13;;;11.54;59.95
48862;BME280;34681;49.188;-0.374;2023-04-09T04:25:41;101993.22;;;11.55;59.80
48862;BME280;34681;49.188;-0.374;2023-04-09T04:28:06;101992.81;;;11.48;60.01
48862;BME280;34681;49.188;-0.374;2023-04-09T04:30:32;101986.72;;;11.45;60.25
48862;BME280;34681;49.188;-0.374;2023-04-09T04:32:57;101988.34;;;11.47;59.79
48862;BME280;34681;49.188;-0.374;2023-04-09T04:35:22;101986.34;;;11.49;59.57
48862;BME280;34681;49.188;-0.374;2023-04-09T04:37:51;101983.72;;;11.48;59.91
48862;BME280;34681;49.188;-0.374;2023-04-09T04:40:16;101975.16;;;11.52;59.80
48862;BME280;34681;49.188;-0.374;2023-04-09T04:42:42;101979.72;;;11.41;59.91
48862;BME280;34681;49.188;-0.374;2023-04-09T04:45:08;101980.56;;;11.19;60.68
48862;BME280;34681;49.188;-0.374;2023-04-09T04:47:33;101972.38;;;11.30;60.36
48862;BME280;34681;49.188;-0.374;2023-04-09T04:49:58;101980.72;;;11.40;60.02
48862;BME280;34681;49.188;-0.374;2023-04-09T04:52:24;101976.25;;;11.50;59.52
48862;BME280;34681;49.188;-0.374;2023-04-09T04:54:49;101981.94;;;11.24;60.03
48862;BME280;34681;49.188;-0.374;2023-04-09T04:57:14;101980.34;;;11.33;60.26
48862;BME280;34681;49.188;-0.374;2023-04-09T04:59:40;101982.47;;;11.41;60.21
48862;BME280;34681;49.188;-0.374;2023-04-09T05:02:06;101978.84;;;11.40;60.05
48862;BME280;34681;49.188;-0.374;2023-04-09T05:04:32;101982.78;;;11.14;60.53
48862;BME280;34681;49.188;-0.374;2023-04-09T05:06:57;101986.94;;;11.42;59.99
48862;BME280;34681;49.188;-0.374;2023-04-09T05:09:22;101986.59;;;11.58;59.38
48862;BME280;34681;49.188;-0.374;2023-04-09T05:11:48;101980.88;;;11.49;59.69
48862;BME280;34681;49.188;-0.374;2023-04-09T05:14:13;101984.00;;;11.45;60.09
48862;BME280;34681;49.188;-0.374;2023-04-09T05:16:38;101982.72;;;11.49;59.84
48862;BME280;34681;49.188;-0.374;2023-04-09T05:19:04;101980.13;;;11.47;59.82
48862;BME280;34681;49.188;-0.374;2023-04-09T05:21:30;101968.53;;;11.55;59.55
48862;BME280;34681;49.188;-0.374;2023-04-09T05:23:56;101988.34;;;11.47;59.85
48862;BME280;34681;49.188;-0.374;2023-04-09T05:26:21;101976.75;;;11.44;59.45
48862;BME280;34681;49.188;-0.374;2023-04-09T05:28:47;101980.31;;;11.22;59.97
48862;BME280;34681;49.188;-0.374;2023-04-09T05:31:12;101979.59;;;11.31;59.96
48862;BME280;34681;49.188;-0.374;2023-04-09T05:33:39;101985.22;;;11.41;59.75
48862;BME280;34681;49.188;-0.374;2023-04-09T05:36:05;101983.97;;;11.34;59.67
48862;BME280;34681;49.188;-0.374;2023-04-09T05:38:31;101972.34;;;10.84;61.04
48862;BME280;34681;49.188;-0.374;2023-04-09T05:40:56;101982.66;;;10.45;61.87
48862;BME280;34681;49.188;-0.374;2023-04-09T05:43:21;101974.75;;;10.88;61.16
48862;BME280;34681;49.188;-0.374;2023-04-09T05:45:47;101979.22;;;10.54;61.99
48862;BME280;34681;49.188;-0.374;2023-04-09T05:48:12;101984.03;;;10.14;63.48
48862;BME280;34681;49.188;-0.374;2023-04-09T05:50:38;101984.28;;;9.98;64.16
48862;BME280;34681;49.188;-0.374;2023-04-09T05:53:03;101972.97;;;9.66;65.21
48862;BME280;34681;49.188;-0.374;2023-04-09T05:55:30;101973.44;;;9.60;65.66
48862;BME280;34681;49.188;-0.374;2023-04-09T05:57:56;101974.31;;;9.35;65.83
48862;BME280;34681;49.188;-0.374;2023-04-09T06:00:22;101981.72;;;9.58;65.50
48862;BME280;34681;49.188;-0.374;2023-04-09T06:02:47;101994.41;;;9.85;64.82
48862;BME280;34681;49.188;-0.374;2023-04-09T06:05:12;101997.25;;;10.33;63.75
48862;BME280;34681;49.188;-0.374;2023-04-09T06:07:38;101989.28;;;10.78;62.18
48862;BME280;34681;49.188;-0.374;2023-04-09T06:10:04;101991.16;;;10.77;61.50
48862;BME280;34681;49.188;-0.374;2023-04-09T06:12:29;101992.19;;;10.63;62.43
48862;BME280;34681;49.188;-0.374;2023-04-09T06:14:54;101979.53;;;10.26;62.99
48862;BME280;34681;49.188;-0.374;2023-04-09T06:17:20;101980.72;;;10.34;62.78
48862;BME280;34681;49.188;-0.374;2023-04-09T06:19:45;101987.47;;;10.41;62.77
48862;BME280;34681;49.188;-0.374;2023-04-09T06:22:11;101993.59;;;10.69;62.08
48862;BME280;34681;49.188;-0.374;2023-04-09T06:24:36;101981.53;;;11.07;60.68
48862;BME280;34681;49.188;-0.374;2023-04-09T06:27:01;101989.13;;;12.17;58.06
48862;BME280;34681;49.188;-0.374;2023-04-09T06:29:27;101984.25;;;12.96;55.90
48862;BME280;34681;49.188;-0.374;2023-04-09T06:31:52;101987.25;;;13.66;54.06
48862;BME280;34681;49.188;-0.374;2023-04-09T06:34:18;101983.44;;;15.54;50.73
48862;BME280;34681;49.188;-0.374;2023-04-09T06:36:43;101986.91;;;16.58;47.68
48862;BME280;34681;49.188;-0.374;2023-04-09T06:39:09;101994.75;;;16.35;47.72
48862;BME280;34681;49.188;-0.374;2023-04-09T06:41:34;101996.19;;;15.75;48.09
48862;BME280;34681;49.188;-0.374;2023-04-09T06:44:00;101996.88;;;14.81;49.57
48862;BME280;34681;49.188;-0.374;2023-04-09T06:46:26;101991.22;;;14.83;49.26
48862;BME280;34681;49.188;-0.374;2023-04-09T06:48:52;101990.00;;;17.26;45.76
48862;BME280;34681;49.188;-0.374;2023-04-09T06:51:17;102004.50;;;21.67;37.57
48862;BME280;34681;49.188;-0.374;2023-04-09T06:53:43;102012.84;;;23.98;33.99
48862;BME280;34681;49.188;-0.374;2023-04-09T06:56:08;102003.47;;;24.47;32.61
48862;BME280;34681;49.188;-0.374;2023-04-09T06:58:34;102003.09;;;24.63;32.41
48862;BME280;34681;49.188;-0.374;2023-04-09T07:00:59;102001.25;;;23.03;33.49
48862;BME280;34681;49.188;-0.374;2023-04-09T07:03:25;102005.03;;;23.16;33.73
48862;BME280;34681;49.188;-0.374;2023-04-09T07:05:53;101997.72;;;21.99;34.96
48862;BME280;34681;49.188;-0.374;2023-04-09T07:08:18;102001.16;;;23.88;33.00
48862;BME280;34681;49.188;-0.374;2023-04-09T07:10:44;101992.53;;;21.96;35.04
48862;BME280;34681;49.188;-0.374;2023-04-09T07:13:11;101992.84;;;22.66;34.66
48862;BME280;34681;49.188;-0.374;2023-04-09T07:15:37;102005.25;;;24.20;32.72
48862;BME280;34681;49.188;-0.374;2023-04-09T07:18:02;102001.38;;;25.70;30.77
48862;BME280;34681;49.188;-0.374;2023-04-09T07:20:27;102004.22;;;26.54;29.56
48862;BME280;34681;49.188;-0.374;2023-04-09T07:22:53;102008.22;;;26.78;28.96
48862;BME280;34681;49.188;-0.374;2023-04-09T07:25:18;102006.09;;;26.16;28.53
48862;BME280;34681;49.188;-0.374;2023-04-09T07:27:44;101989.38;;;24.75;30.04
48862;BME280;34681;49.188;-0.374;2023-04-09T07:30:09;101990.34;;;23.57;31.88
48862;BME280;34681;49.188;-0.374;2023-04-09T07:32:35;101986.09;;;21.80;34.30
48862;BME280;34681;49.188;-0.374;2023-04-09T07:35:01;101979.09;;;20.86;35.82
48862;BME280;34681;49.188;-0.374;2023-04-09T07:37:28;101986.38;;;21.71;35.32
48862;BME280;34681;49.188;-0.374;2023-04-09T07:39:54;101996.78;;;23.08;33.63
48862;BME280;34681;49.188;-0.374;2023-04-09T07:42:19;101992.78;;;24.23;32.23
48862;BME280;34681;49.188;-0.374;2023-04-09T07:44:45;101994.63;;;26.24;30.06
48862;BME280;34681;49.188;-0.374;2023-04-09T07:47:11;101984.16;;;27.84;26.98
48862;BME280;34681;49.188;-0.374;2023-04-09T07:49:37;101992.09;;;28.48;26.16
48862;BME280;34681;49.188;-0.374;2023-04-09T07:52:03;101998.38;;;28.32;26.31
48862;BME280;34681;49.188;-0.374;2023-04-09T07:54:29;102004.56;;;30.83;24.78
48862;BME280;34681;49.188;-0.374;2023-04-09T07:56:56;101999.59;;;31.47;23.44
48862;BME280;34681;49.188;-0.374;2023-04-09T07:59:22;101998.13;;;31.28;23.91
48862;BME280;34681;49.188;-0.374;2023-04-09T08:01:47;102002.25;;;31.71;23.28
48862;BME280;34681;49.188;-0.374;2023-04-09T08:04:12;101989.69;;;31.16;23.02
48862;BME280;34681;49.188;-0.374;2023-04-09T08:06:38;101990.16;;;31.25;23.49
48862;BME280;34681;49.188;-0.374;2023-04-09T08:09:03;101991.38;;;31.46;23.73
48862;BME280;34681;49.188;-0.374;2023-04-09T08:11:29;101988.34;;;31.36;23.66
48862;BME280;34681;49.188;-0.374;2023-04-09T08:13:55;101982.78;;;30.67;23.96
48862;BME280;34681;49.188;-0.374;2023-04-09T08:16:30;101980.25;;;28.03;27.10
48862;BME280;34681;49.188;-0.374;2023-04-09T08:19:23;101978.34;;;27.79;27.31
48862;BME280;34681;49.188;-0.374;2023-04-09T08:21:49;101981.91;;;29.14;27.15
48862;BME280;34681;49.188;-0.374;2023-04-09T08:24:14;101982.00;;;27.29;27.71
48862;BME280;34681;49.188;-0.374;2023-04-09T08:26:41;101986.38;;;26.29;29.61
48862;BME280;34681;49.188;-0.374;2023-04-09T08:29:07;101978.66;;;26.24;29.76
48862;BME280;34681;49.188;-0.374;2023-04-09T08:31:34;101975.53;;;27.54;28.37
48862;BME280;34681;49.188;-0.374;2023-04-09T08:33:59;101975.16;;;26.42;29.43
48862;BME280;34681;49.188;-0.374;2023-04-09T08:36:25;101965.47;;;24.73;31.78
48862;BME280;34681;49.188;-0.374;2023-04-09T08:38:51;101974.69;;;25.74;31.34
48862;BME280;34681;49.188;-0.374;2023-04-09T08:41:21;101979.75;;;26.75;30.51
48862;BME280;34681;49.188;-0.374;2023-04-09T08:43:47;101966.72;;;26.36;30.23
48862;BME280;34681;49.188;-0.374;2023-04-09T08:46:14;101969.53;;;26.36;31.13
48862;BME280;34681;49.188;-0.374;2023-04-09T08:48:42;101959.34;;;25.37;31.97
48862;BME280;34681;49.188;-0.374;2023-04-09T08:51:14;101966.69;;;25.25;31.74
48862;BME280;34681;49.188;-0.374;2023-04-09T08:53:45;101956.81;;;24.13;33.58
48862;BME280;34681;49.188;-0.374;2023-04-09T08:56:14;101961.94;;;23.47;34.45
48862;BME280;34681;49.188;-0.374;2023-04-09T08:58:44;101961.41;;;22.36;36.64
48862;BME280;34681;49.188;-0.374;2023-04-09T09:01:37;101958.72;;;22.28;37.35
48862;BME280;34681;49.188;-0.374;2023-04-09T09:04:08;101967.97;;;23.01;36.39
48862;BME280;34681;49.188;-0.374;2023-04-09T09:06:41;101955.00;;;23.99;35.07
48862;BME280;34681;49.188;-0.374;2023-04-09T09:09:12;101959.13;;;24.44;34.97
48862;BME280;34681;49.188;-0.374;2023-04-09T09:14:04;101945.28;;;24.84;34.28
48862;BME280;34681;49.188;-0.374;2023-04-09T09:16:31;101943.94;;;23.56;34.52
48862;BME280;34681;49.188;-0.374;2023-04-09T09:18:59;101937.28;;;21.84;37.25
48862;BME280;34681;49.188;-0.374;2023-04-09T09:21:27;101939.47;;;21.22;39.01
48862;BME280;34681;49.188;-0.374;2023-04-09T09:23:53;101929.91;;;22.21;38.34
48862;BME280;34681;49.188;-0.374;2023-04-09T09:26:20;101927.13;;;21.01;38.98
48862;BME280;34681;49.188;-0.374;2023-04-09T09:28:47;101917.03;;;20.86;39.79
48862;BME280;34681;49.188;-0.374;2023-04-09T09:31:14;101922.06;;;21.05;39.67
48862;BME280;34681;49.188;-0.374;2023-04-09T09:33:40;101922.31;;;21.71;39.16
48862;BME280;34681;49.188;-0.374;2023-04-09T09:36:06;101933.22;;;21.28;38.59
48862;BME280;34681;49.188;-0.374;2023-04-09T09:38:35;101924.19;;;21.03;39.06
48862;BME280;34681;49.188;-0.374;2023-04-09T09:41:15;101925.97;;;20.73;40.73
48862;BME280;34681;49.188;-0.374;2023-04-09T09:43:41;101915.41;;;20.06;40.38
48862;BME280;34681;49.188;-0.374;2023-04-09T09:46:07;101910.94;;;18.93;43.24
48862;BME280;34681;49.188;-0.374;2023-04-09T09:48:33;101906.06;;;19.11;43.90
48862;BME280;34681;49.188;-0.374;2023-04-09T09:50:59;101903.66;;;18.75;43.86
48862;BME280;34681;49.188;-0.374;2023-04-09T09:53:27;101911.25;;;18.57;44.12
48862;BME280;34681;49.188;-0.374;2023-04-09T09:55:56;101912.41;;;18.30;44.99
48862;BME280;34681;49.188;-0.374;2023-04-09T09:58:31;101914.75;;;18.09;45.21
48862;BME280;34681;49.188;-0.374;2023-04-09T10:00:57;101911.34;;;18.23;46.18
48862;BME280;34681;49.188;-0.374;2023-04-09T10:03:28;101905.22;;;18.70;45.06
48862;BME280;34681;49.188;-0.374;2023-04-09T10:05:54;101911.72;;;18.36;44.03
48862;BME280;34681;49.188;-0.374;2023-04-09T10:08:21;101905.09;;;18.13;46.34
48862;BME280;34681;49.188;-0.374;2023-04-09T10:10:48;101907.63;;;17.98;45.44
48862;BME280;34681;49.188;-0.374;2023-04-09T10:13:27;101917.78;;;18.32;45.09
48862;BME280;34681;49.188;-0.374;2023-04-09T10:15:57;101910.84;;;18.44;44.45
48862;BME280;34681;49.188;-0.374;2023-04-09T10:18:23;101905.88;;;18.64;45.42
48862;BME280;34681;49.188;-0.374;2023-04-09T10:20:53;101895.28;;;18.51;44.10
48862;BME280;34681;49.188;-0.374;2023-04-09T10:23:37;101887.66;;;18.61;44.26
48862;BME280;34681;49.188;-0.374;2023-04-09T10:26:03;101888.69;;;18.52;43.91
48862;BME280;34681;49.188;-0.374;2023-04-09T10:28:29;101877.13;;;18.57;45.49
48862;BME280;34681;49.188;-0.374;2023-04-09T10:30:55;101883.53;;;18.57;45.56
48862;BME280;34681;49.188;-0.374;2023-04-09T10:33:22;101882.53;;;18.83;44.79
48862;BME280;34681;49.188;-0.374;2023-04-09T10:35:51;101881.66;;;19.06;44.20
48862;BME280;34681;49.188;-0.374;2023-04-09T10:38:32;101881.81;;;19.21;43.56
48862;BME280;34681;49.188;-0.374;2023-04-09T10:40:58;101885.28;;;19.07;44.45
48862;BME280;34681;49.188;-0.374;2023-04-09T10:43:23;101875.56;;;18.95;43.82
48862;BME280;34681;49.188;-0.374;2023-04-09T10:45:48;101877.56;;;18.19;45.25
48862;BME280;34681;49.188;-0.374;2023-04-09T10:48:19;101871.22;;;18.51;45.40
48862;BME280;34681;49.188;-0.374;2023-04-09T10:50:49;101870.06;;;18.70;45.41
48862;BME280;34681;49.188;-0.374;2023-04-09T10:53:22;101867.44;;;18.93;45.39
48862;BME280;34681;49.188;-0.374;2023-04-09T10:55:50;101862.25;;;18.90;44.48
48862;BME280;34681;49.188;-0.374;2023-04-09T10:58:15;101860.66;;;18.63;46.29
48862;BME280;34681;49.188;-0.374;2023-04-09T11:00:43;101864.53;;;18.70;44.77
48862;BME280;34681;49.188;-0.374;2023-04-09T11:03:21;101862.47;;;18.06;46.73
48862;BME280;34681;49.188;-0.374;2023-04-09T11:05:51;101846.63;;;18.48;46.84
48862;BME280;34681;49.188;-0.374;2023-04-09T11:08:17;101846.13;;;18.77;45.89
48862;BME280;34681;49.188;-0.374;2023-04-09T11:10:44;101857.72;;;19.14;45.88
48862;BME280;34681;49.188;-0.374;2023-04-09T11:13:11;101854.09;;;19.13;45.91
48862;BME280;34681;49.188;-0.374;2023-04-09T11:15:40;101848.34;;;19.15;46.17
48862;BME280;34681;49.188;-0.374;2023-04-09T11:18:06;101852.84;;;19.24;44.57
48862;BME280;34681;49.188;-0.374;2023-04-09T11:20:34;101850.97;;;19.08;44.83
48862;BME280;34681;49.188;-0.374;2023-04-09T11:22:59;101848.00;;;19.18;45.18
48862;BME280;34681;49.188;-0.374;2023-04-09T11:25:27;101841.38;;;19.27;45.89
48862;BME280;34681;49.188;-0.374;2023-04-09T11:27:53;101830.56;;;19.48;44.41
48862;BME280;34681;49.188;-0.374;2023-04-09T11:30:19;101831.38;;;19.09;42.69
48862;BME280;34681;49.188;-0.374;2023-04-09T11:32:45;101828.09;;;18.98;44.15
48862;BME280;34681;49.188;-0.374;2023-04-09T11:35:12;101829.16;;;18.80;42.63
48862;BME280;34681;49.188;-0.374;2023-04-09T11:37:37;101822.69;;;18.23;44.04
48862;BME280;34681;49.188;-0.374;2023-04-09T11:40:03;101817.50;;;18.28;43.78
48862;BME280;34681;49.188;-0.374;2023-04-09T11:42:31;101820.56;;;17.92;46.03
48862;BME280;34681;49.188;-0.374;2023-04-09T11:44:57;101811.44;;;18.24;45.71
48862;BME280;34681;49.188;-0.374;2023-04-09T11:47:23;101815.03;;;18.01;44.79
48862;BME280;34681;49.188;-0.374;2023-04-09T11:49:49;101804.81;;;18.01;44.81
48862;BME280;34681;49.188;-0.374;2023-04-09T11:52:15;101808.47;;;18.18;44.33
48862;BME280;34681;49.188;-0.374;2023-04-09T11:54:41;101811.22;;;17.93;44.71
48862;BME280;34681;49.188;-0.374;2023-04-09T11:57:07;101800.84;;;18.12;45.52
48862;BME280;34681;49.188;-0.374;2023-04-09T11:59:32;101794.31;;;18.37;44.89
48862;BME280;34681;49.188;-0.374;2023-04-09T12:01:58;101805.72;;;18.26;44.36
48862;BME280;34681;49.188;-0.374;2023-04-09T12:04:24;101798.81;;;18.22;44.16
48862;BME280;34681;49.188;-0.374;2023-04-09T12:06:50;101788.59;;;18.63;44.42
48862;BME280;34681;49.188;-0.374;2023-04-09T12:09:15;101787.56;;;18.80;44.57
48862;BME280;34681;49.188;-0.374;2023-04-09T12:11:44;101791.03;;;18.50;43.98
48862;BME280;34681;49.188;-0.374;2023-04-09T12:14:17;101790.16;;;18.82;45.03
48862;BME280;34681;49.188;-0.374;2023-04-09T12:16:43;101792.25;;;18.88;46.05
48862;BME280;34681;49.188;-0.374;2023-04-09T12:19:10;101792.03;;;18.98;45.40
48862;BME280;34681;49.188;-0.374;2023-04-09T12:21:52;101791.63;;;19.25;45.93
48862;BME280;34681;49.188;-0.374;2023-04-09T12:24:21;101778.69;;;18.93;43.45
48862;BME280;34681;49.188;-0.374;2023-04-09T12:26:47;101778.38;;;18.88;45.28
48862;BME280;34681;49.188;-0.374;2023-04-09T12:29:14;101777.47;;;19.12;44.66
48862;BME280;34681;49.188;-0.374;2023-04-09T12:31:40;101767.31;;;19.27;44.59
48862;BME280;34681;49.188;-0.374;2023-04-09T12:34:05;101769.31;;;19.02;44.73
48862;BME280;34681;49.188;-0.374;2023-04-09T12:36:31;101771.81;;;18.48;44.82
48862;BME280;34681;49.188;-0.374;2023-04-09T12:38:56;101764.34;;;18.08;45.66
48862;BME280;34681;49.188;-0.374;2023-04-09T12:41:22;101756.03;;;18.57;45.63
48862;BME280;34681;49.188;-0.374;2023-04-09T12:43:47;101760.91;;;18.71;44.11
48862;BME280;34681;49.188;-0.374;2023-04-09T12:46:13;101753.28;;;18.73;44.63
48862;BME280;34681;49.188;-0.374;2023-04-09T12:48:38;101757.34;;;19.02;44.95
48862;BME280;34681;49.188;-0.374;2023-04-09T12:51:04;101758.31;;;19.25;44.28
48862;BME280;34681;49.188;-0.374;2023-04-09T12:53:30;101764.56;;;19.19;44.81